sensor_id;sensor_type;location;lat;lon;timestamp;P1;durP1;ratioP1;P2;durP2;ratioP2
73954;SDS011;62306;52.516;13.290;2023-05-07T00:00:47;23.52;;;15.45;;
73954;SDS011;62306;52.516;13.290;2023-05-07T00:03:16;24.55;;;14.05;;
73954;SDS011;62306;52.516;13.290;2023-05-07T00:05:43;24.83;;;14.68;;
73954;SDS011;62306;52.516;13.290;2023-05-07T00:08:10;23.45;;;14.60;;
73954;SDS011;62306;52.516;13.290;2023-05-07T00:10:37;21.27;;;14.57;;
73954;SDS011;62306;52.516;13.290;2023-05-07T00:13:04;20.58;;;13.60;;
73954;SDS011;62306;52.516;13.290;2023-05-07T00:15:31;21.98;;;13.50;;
73954;SDS011;62306;52.516;13.290;2023-05-07T00:17:58;18.55;;;13.52;;
73954;SDS011;62306;52.516;13.290;2023-05-07T00:20:26;25.42;;;14.45;;
73954;SDS011;62306;52.516;13.290;2023-05-07T00:22:54;22.52;;;13.77;;
73954;SDS011;62306;52.516;13.290;2023-05-07T00:25:20;23.90;;;14.13;;
73954;SDS011;62306;52.516;13.290;2023-05-07T00:27:47;18.70;;;13.15;;
73954;SDS011;62306;52.516;13.290;2023-05-07T00:30:14;22.75;;;13.32;;
73954;SDS011;62306;52.516;13.290;2023-05-07T00:32:41;21.35;;;12.57;;
73954;SDS011;62306;52.516;13.290;2023-05-07T00:35:10;22.23;;;13.15;;
73954;SDS011;62306;52.516;13.290;2023-05-07T00:37:38;18.88;;;12.82;;
73954;SDS011;62306;52.516;13.290;2023-05-07T00:40:06;19.75;;;12.35;;
73954;SDS011;62306;52.516;13.290;2023-05-07T00:42:33;18.45;;;12.95;;
73954;SDS011;62306;52.516;13.290;2023-05-07T00:45:00;23.63;;;13.77;;
73954;SDS011;62306;52.516;13.290;2023-05-07T00:47:27;18.63;;;12.98;;
73954;SDS011;62306;52.516;13.290;2023-05-07T00:49:55;19.73;;;13.40;;
73954;SDS011;62306;52.516;13.290;2023-05-07T00:52:23;17.40;;;12.38;;
73954;SDS011;62306;52.516;13.290;2023-05-07T00:54:53;18.58;;;12.32;;
73954;SDS011;62306;52.516;13.290;2023-05-07T00:57:21;16.17;;;12.15;;
73954;SDS011;62306;52.516;13.290;2023-05-07T00:59:50;19.15;;;12.13;;
73954;SDS011;62306;52.516;13.290;2023-05-07T01:02:18;20.67;;;12.48;;
73954;SDS011;62306;52.516;13.290;2023-05-07T01:04:45;17.00;;;11.65;;
73954;SDS011;62306;52.516;13.290;2023-05-07T01:07:11;18.17;;;11.70;;
73954;SDS011;62306;52.516;13.290;2023-05-07T01:09:39;20.00;;;12.80;;
73954;SDS011;62306;52.516;13.290;2023-05-07T01:12:08;17.60;;;12.38;;
73954;SDS011;62306;52.516;13.290;2023-05-07T01:14:35;17.10;;;12.50;;
73954;SDS011;62306;52.516;13.290;2023-05-07T01:17:02;17.52;;;12.38;;
73954;SDS011;62306;52.516;13.290;2023-05-07T01:19:29;16.80;;;11.98;;
73954;SDS011;62306;52.516;13.290;2023-05-07T01:22:00;15.25;;;11.20;;
73954;SDS011;62306;52.516;13.290;2023-05-07T01:24:34;20.05;;;12.95;;
73954;SDS011;62306;52.516;13.290;2023-05-07T01:27:02;19.20;;;12.48;;
73954;SDS011;62306;52.516;13.290;2023-05-07T01:29:30;17.55;;;12.27;;
73954;SDS011;62306;52.516;13.290;2023-05-07T01:31:57;14.85;;;11.25;;
73954;SDS011;62306;52.516;13.290;2023-05-07T01:34:27;18.33;;;10.45;;
73954;SDS011;62306;52.516;13.290;2023-05-07T01:36:56;16.73;;;10.35;;
73954;SDS011;62306;52.516;13.290;2023-05-07T01:39:24;15.98;;;10.70;;
73954;SDS011;62306;52.516;13.290;2023-05-07T01:41:53;28.42;;;11.77;;
73954;SDS011;62306;52.516;13.290;2023-05-07T01:44:21;21.58;;;13.10;;
73954;SDS011;62306;52.516;13.290;2023-05-07T01:46:48;17.15;;;11.30;;
73954;SDS011;62306;52.516;13.290;2023-05-07T01:49:15;18.92;;;11.98;;
73954;SDS011;62306;52.516;13.290;2023-05-07T01:51:43;17.77;;;11.50;;
73954;SDS011;62306;52.516;13.290;2023-05-07T01:54:10;17.65;;;11.13;;
73954;SDS011;62306;52.516;13.290;2023-05-07T01:56:37;17.48;;;11.82;;
73954;SDS011;62306;52.516;13.290;2023-05-07T01:59:05;17.42;;;11.10;;
73954;SDS011;62306;52.516;13.290;2023-05-07T02:01:32;17.02;;;10.82;;
73954;SDS011;62306;52.516;13.290;2023-05-07T02:03:59;16.20;;;10.68;;
73954;SDS011;62306;52.516;13.290;2023-05-07T02:06:26;15.10;;;10.75;;
73954;SDS011;62306;52.516;13.290;2023-05-07T02:08:53;16.73;;;11.20;;
73954;SDS011;62306;52.516;13.290;2023-05-07T02:11:20;17.20;;;11.30;;
73954;SDS011;62306;52.516;13.290;2023-05-07T02:13:46;16.50;;;11.05;;
73954;SDS011;62306;52.516;13.290;2023-05-07T02:16:15;17.67;;;11.77;;
73954;SDS011;62306;52.516;13.290;2023-05-07T02:18:42;16.92;;;11.40;;
73954;SDS011;62306;52.516;13.290;2023-05-07T02:21:09;20.05;;;12.52;;
73954;SDS011;62306;52.516;13.290;2023-05-07T02:23:36;19.92;;;12.93;;
73954;SDS011;62306;52.516;13.290;2023-05-07T02:26:03;19.02;;;12.90;;
73954;SDS011;62306;52.516;13.290;2023-05-07T02:28:30;20.42;;;12.68;;
73954;SDS011;62306;52.516;13.290;2023-05-07T02:30:57;20.85;;;12.13;;
73954;SDS011;62306;52.516;13.290;2023-05-07T02:33:27;21.45;;;12.80;;
73954;SDS011;62306;52.516;13.290;2023-05-07T02:35:54;16.75;;;11.93;;
73954;SDS011;62306;52.516;13.290;2023-05-07T02:38:20;21.20;;;13.02;;
73954;SDS011;62306;52.516;13.290;2023-05-07T02:40:48;20.95;;;13.18;;
73954;SDS011;62306;52.516;13.290;2023-05-07T02:43:14;16.80;;;12.50;;
73954;SDS011;62306;52.516;13.290;2023-05-07T02:45:41;18.83;;;12.50;;
73954;SDS011;62306;52.516;13.290;2023-05-07T02:48:09;21.00;;;12.07;;
73954;SDS011;62306;52.516;13.290;2023-05-07T02:50:37;20.95;;;11.73;;
73954;SDS011;62306;52.516;13.290;2023-05-07T02:53:04;20.35;;;12.00;;
73954;SDS011;62306;52.516;13.290;2023-05-07T02:55:31;18.45;;;13.20;;
73954;SDS011;62306;52.516;13.290;2023-05-07T02:57:58;18.02;;;12.20;;
73954;SDS011;62306;52.516;13.290;2023-05-07T03:00:25;16.20;;;11.93;;
73954;SDS011;62306;52.516;13.290;2023-05-07T03:02:52;18.00;;;11.18;;
73954;SDS011;62306;52.516;13.290;2023-05-07T03:05:19;17.95;;;11.20;;
73954;SDS011;62306;52.516;13.290;2023-05-07T03:07:47;25.75;;;12.50;;
73954;SDS011;62306;52.516;13.290;2023-05-07T03:10:14;17.10;;;12.05;;
73954;SDS011;62306;52.516;13.290;2023-05-07T03:12:41;16.63;;;10.68;;
73954;SDS011;62306;52.516;13.290;2023-05-07T03:15:08;16.40;;;11.15;;
73954;SDS011;62306;52.516;13.290;2023-05-07T03:17:36;15.82;;;10.57;;
73954;SDS011;62306;52.516;13.290;2023-05-07T03:20:03;16.55;;;11.63;;
73954;SDS011;62306;52.516;13.290;2023-05-07T03:22:32;14.98;;;10.73;;
73954;SDS011;62306;52.516;13.290;2023-05-07T03:25:00;18.90;;;12.05;;
73954;SDS011;62306;52.516;13.290;2023-05-07T03:27:27;15.27;;;10.52;;
73954;SDS011;62306;52.516;13.290;2023-05-07T03:29:54;15.57;;;10.65;;
73954;SDS011;62306;52.516;13.290;2023-05-07T03:32:20;14.77;;;10.75;;
73954;SDS011;62306;52.516;13.290;2023-05-07T03:34:47;14.82;;;10.02;;
73954;SDS011;62306;52.516;13.290;2023-05-07T03:37:14;16.92;;;10.32;;
73954;SDS011;62306;52.516;13.290;2023-05-07T03:39:41;16.52;;;10.65;;
73954;SDS011;62306;52.516;13.290;2023-05-07T03:42:09;22.25;;;10.20;;
73954;SDS011;62306;52.516;13.290;2023-05-07T06:04:22;10.00;;;6.80;;
73954;SDS011;62306;52.516;13.290;2023-05-07T06:06:49;10.82;;;6.65;;
73954;SDS011;62306;52.516;13.290;2023-05-07T06:09:16;9.48;;;5.78;;
73954;SDS011;62306;52.516;13.290;2023-05-07T06:11:43;8.48;;;5.88;;
73954;SDS011;62306;52.516;13.290;2023-05-07T06:14:10;9.88;;;6.60;;
73954;SDS011;62306;52.516;13.290;2023-05-07T06:16:37;8.32;;;6.40;;
73954;SDS011;62306;52.516;13.290;2023-05-07T06:19:04;10.15;;;6.72;;
73954;SDS011;62306;52.516;13.290;2023-05-07T06:21:32;14.65;;;6.50;;
73954;SDS011;62306;52.516;13.290;2023-05-07T06:23:59;10.90;;;6.97;;
73954;SDS011;62306;52.516;13.290;2023-05-07T06:26:26;10.02;;;7.05;;
73954;SDS011;62306;52.516;13.290;2023-05-07T06:28:52;11.35;;;7.03;;
73954;SDS011;62306;52.516;13.290;2023-05-07T06:31:19;9.48;;;6.50;;
73954;SDS011;62306;52.516;13.290;2023-05-07T06:33:46;10.93;;;7.32;;
73954;SDS011;62306;52.516;13.290;2023-05-07T06:36:14;11.30;;;6.88;;
73954;SDS011;62306;52.516;13.290;2023-05-07T06:38:42;9.18;;;6.93;;
73954;SDS011;62306;52.516;13.290;2023-05-07T06:41:09;12.82;;;8.25;;
73954;SDS011;62306;52.516;13.290;2023-05-07T06:43:36;10.35;;;7.78;;
73954;SDS011;62306;52.516;13.290;2023-05-07T06:46:03;11.90;;;8.38;;
73954;SDS011;62306;52.516;13.290;2023-05-07T06:48:30;11.93;;;7.82;;
73954;SDS011;62306;52.516;13.290;2023-05-07T06:50:57;11.35;;;7.85;;
73954;SDS011;62306;52.516;13.290;2023-05-07T06:53:24;14.77;;;8.00;;
73954;SDS011;62306;52.516;13.290;2023-05-07T06:55:52;17.13;;;8.32;;
73954;SDS011;62306;52.516;13.290;2023-05-07T06:58:19;12.75;;;7.82;;
73954;SDS011;62306;52.516;13.290;2023-05-07T07:00:46;9.68;;;7.00;;
73954;SDS011;62306;52.516;13.290;2023-05-07T07:03:12;17.20;;;7.72;;
73954;SDS011;62306;52.516;13.290;2023-05-07T07:05:40;14.20;;;8.45;;
73954;SDS011;62306;52.516;13.290;2023-05-07T07:08:07;11.18;;;6.78;;
73954;SDS011;62306;52.516;13.290;2023-05-07T07:10:34;11.02;;;7.88;;
73954;SDS011;62306;52.516;13.290;2023-05-07T07:13:02;13.30;;;7.35;;
73954;SDS011;62306;52.516;13.290;2023-05-07T07:15:29;12.57;;;7.10;;
73954;SDS011;62306;52.516;13.290;2023-05-07T07:17:56;13.45;;;7.25;;
73954;SDS011;62306;52.516;13.290;2023-05-07T07:20:23;9.75;;;6.57;;
73954;SDS011;62306;52.516;13.290;2023-05-07T07:22:50;11.43;;;7.15;;
73954;SDS011;62306;52.516;13.290;2023-05-07T07:25:16;9.07;;;6.38;;
73954;SDS011;62306;52.516;13.290;2023-05-07T07:27:43;9.10;;;6.22;;
73954;SDS011;62306;52.516;13.290;2023-05-07T07:30:12;8.68;;;6.88;;
73954;SDS011;62306;52.516;13.290;2023-05-07T07:32:39;9.07;;;6.00;;
73954;SDS011;62306;52.516;13.290;2023-05-07T07:35:06;7.43;;;5.68;;
73954;SDS011;62306;52.516;13.290;2023-05-07T07:37:34;6.65;;;5.43;;
73954;SDS011;62306;52.516;13.290;2023-05-07T07:40:01;10.95;;;5.38;;
73954;SDS011;62306;52.516;13.290;2023-05-07T07:42:28;7.65;;;5.40;;
73954;SDS011;62306;52.516;13.290;2023-05-07T07:44:55;8.93;;;5.50;;
73954;SDS011;62306;52.516;13.290;2023-05-07T07:47:24;8.43;;;4.97;;
73954;SDS011;62306;52.516;13.290;2023-05-07T07:49:51;7.03;;;5.15;;
73954;SDS011;62306;52.516;13.290;2023-05-07T07:52:18;5.90;;;5.07;;
73954;SDS011;62306;52.516;13.290;2023-05-07T07:54:45;9.75;;;4.97;;
73954;SDS011;62306;52.516;13.290;2023-05-07T07:57:11;8.50;;;5.30;;
73954;SDS011;62306;52.516;13.290;2023-05-07T07:59:38;6.68;;;4.50;;
73954;SDS011;62306;52.516;13.290;2023-05-07T08:02:07;5.10;;;4.55;;
73954;SDS011;62306;52.516;13.290;2023-05-07T08:04:35;6.95;;;4.78;;
73954;SDS011;62306;52.516;13.290;2023-05-07T08:07:02;6.95;;;4.10;;
73954;SDS011;62306;52.516;13.290;2023-05-07T08:09:29;7.15;;;4.40;;
73954;SDS011;62306;52.516;13.290;2023-05-07T08:11:56;5.22;;;4.00;;
73954;SDS011;62306;52.516;13.290;2023-05-07T08:14:24;8.48;;;4.57;;
73954;SDS011;62306;52.516;13.290;2023-05-07T08:16:50;5.75;;;4.15;;
73954;SDS011;62306;52.516;13.290;2023-05-07T08:19:17;5.53;;;4.30;;
73954;SDS011;62306;52.516;13.290;2023-05-07T08:21:46;5.43;;;4.47;;
73954;SDS011;62306;52.516;13.290;2023-05-07T08:24:13;5.35;;;4.28;;
73954;SDS011;62306;52.516;13.290;2023-05-07T08:26:40;6.75;;;4.25;;
73954;SDS011;62306;52.516;13.290;2023-05-07T08:29:08;4.72;;;3.70;;
73954;SDS011;62306;52.516;13.290;2023-05-07T08:31:35;5.53;;;4.18;;
73954;SDS011;62306;52.516;13.290;2023-05-07T08:34:03;10.82;;;3.60;;
73954;SDS011;62306;52.516;13.290;2023-05-07T08:36:30;5.28;;;3.42;;
73954;SDS011;62306;52.516;13.290;2023-05-07T08:38:58;4.95;;;3.53;;
73954;SDS011;62306;52.516;13.290;2023-05-07T08:41:26;5.90;;;3.60;;
73954;SDS011;62306;52.516;13.290;2023-05-07T08:43:52;12.70;;;4.35;;
73954;SDS011;62306;52.516;13.290;2023-05-07T08:46:23;5.38;;;3.85;;
73954;SDS011;62306;52.516;13.290;2023-05-07T08:48:53;5.97;;;3.95;;
73954;SDS011;62306;52.516;13.290;2023-05-07T08:51:20;4.40;;;3.38;;
73954;SDS011;62306;52.516;13.290;2023-05-07T08:53:48;4.07;;;3.33;;
73954;SDS011;62306;52.516;13.290;2023-05-07T08:56:17;7.72;;;3.35;;
73954;SDS011;62306;52.516;13.290;2023-05-07T08:58:45;5.68;;;3.80;;
73954;SDS011;62306;52.516;13.290;2023-05-07T09:01:13;5.05;;;3.33;;
73954;SDS011;62306;52.516;13.290;2023-05-07T09:03:42;4.72;;;3.50;;
73954;SDS011;62306;52.516;13.290;2023-05-07T09:06:11;7.72;;;3.47;;
73954;SDS011;62306;52.516;13.290;2023-05-07T09:08:39;6.85;;;3.70;;
73954;SDS011;62306;52.516;13.290;2023-05-07T09:11:06;8.77;;;3.65;;
73954;SDS011;62306;52.516;13.290;2023-05-07T09:13:34;4.60;;;3.80;;
73954;SDS011;62306;52.516;13.290;2023-05-07T09:16:09;5.55;;;3.60;;
73954;SDS011;62306;52.516;13.290;2023-05-07T09:18:40;7.60;;;4.10;;
73954;SDS011;62306;52.516;13.290;2023-05-07T09:21:09;5.22;;;3.45;;
73954;SDS011;62306;52.516;13.290;2023-05-07T09:23:37;5.22;;;3.22;;
73954;SDS011;62306;52.516;13.290;2023-05-07T09:26:04;9.55;;;3.85;;
73954;SDS011;62306;52.516;13.290;2023-05-07T09:28:38;4.95;;;3.35;;
73954;SDS011;62306;52.516;13.290;2023-05-07T09:31:06;6.25;;;3.65;;
73954;SDS011;62306;52.516;13.290;2023-05-07T09:33:33;5.70;;;3.47;;
73954;SDS011;62306;52.516;13.290;2023-05-07T09:36:02;5.38;;;3.60;;
73954;SDS011;62306;52.516;13.290;2023-05-07T09:38:30;7.05;;;3.67;;
73954;SDS011;62306;52.516;13.290;2023-05-07T09:41:01;4.47;;;3.10;;
73954;SDS011;62306;52.516;13.290;2023-05-07T09:43:31;6.72;;;3.42;;
73954;SDS011;62306;52.516;13.290;2023-05-07T09:46:01;4.05;;;2.88;;
73954;SDS011;62306;52.516;13.290;2023-05-07T09:48:29;4.85;;;3.33;;
73954;SDS011;62306;52.516;13.290;2023-05-07T09:50:57;4.95;;;3.70;;
73954;SDS011;62306;52.516;13.290;2023-05-07T09:53:29;6.57;;;3.80;;
73954;SDS011;62306;52.516;13.290;2023-05-07T09:55:57;7.30;;;3.60;;
73954;SDS011;62306;52.516;13.290;2023-05-07T09:58:25;4.30;;;3.47;;
73954;SDS011;62306;52.516;13.290;2023-05-07T10:00:52;5.70;;;3.40;;
73954;SDS011;62306;52.516;13.290;2023-05-07T10:03:21;5.45;;;3.53;;
73954;SDS011;62306;52.516;13.290;2023-05-07T10:05:50;4.80;;;3.20;;
73954;SDS011;62306;52.516;13.290;2023-05-07T10:08:19;5.10;;;3.45;;
73954;SDS011;62306;52.516;13.290;2023-05-07T10:10:46;4.75;;;3.08;;
73954;SDS011;62306;52.516;13.290;2023-05-07T10:13:15;5.45;;;3.00;;
73954;SDS011;62306;52.516;13.290;2023-05-07T10:15:42;5.32;;;3.00;;
73954;SDS011;62306;52.516;13.290;2023-05-07T10:18:09;5.63;;;2.85;;
73954;SDS011;62306;52.516;13.290;2023-05-07T10:20:39;4.35;;;3.00;;
73954;SDS011;62306;52.516;13.290;2023-05-07T10:23:09;6.38;;;2.80;;
73954;SDS011;62306;52.516;13.290;2023-05-07T10:25:40;3.88;;;2.67;;
73954;SDS011;62306;52.516;13.290;2023-05-07T10:28:08;6.32;;;2.80;;
73954;SDS011;62306;52.516;13.290;2023-05-07T10:30:39;5.78;;;2.78;;
73954;SDS011;62306;52.516;13.290;2023-05-07T10:33:15;4.00;;;2.55;;
73954;SDS011;62306;52.516;13.290;2023-05-07T10:35:46;5.53;;;2.80;;
73954;SDS011;62306;52.516;13.290;2023-05-07T10:38:14;3.47;;;2.78;;
73954;SDS011;62306;52.516;13.290;2023-05-07T10:40:41;3.70;;;2.90;;
73954;SDS011;62306;52.516;13.290;2023-05-07T10:43:09;4.15;;;3.15;;
73954;SDS011;62306;52.516;13.290;2023-05-07T10:45:36;2.78;;;2.17;;
73954;SDS011;62306;52.516;13.290;2023-05-07T10:48:07;4.63;;;2.38;;
73954;SDS011;62306;52.516;13.290;2023-05-07T10:50:38;2.85;;;2.17;;
73954;SDS011;62306;52.516;13.290;2023-05-07T10:53:23;4.88;;;2.10;;
73954;SDS011;62306;52.516;13.290;2023-05-07T10:58:54;3.13;;;2.10;;
73954;SDS011;62306;52.516;13.290;2023-05-07T11:04:16;2.33;;;2.08;;
73954;SDS011;62306;52.516;13.290;2023-05-07T11:12:54;7.03;;;2.00;;
73954;SDS011;62306;52.516;13.290;2023-05-07T11:15:35;5.03;;;1.90;;
73954;SDS011;62306;52.516;13.290;2023-05-07T11:18:03;2.72;;;2.00;;
73954;SDS011;62306;52.516;13.290;2023-05-07T11:26:43;4.05;;;2.10;;
73954;SDS011;62306;52.516;13.290;2023-05-07T11:29:14;3.03;;;1.80;;
73954;SDS011;62306;52.516;13.290;2023-05-07T11:31:42;3.80;;;2.20;;
73954;SDS011;62306;52.516;13.290;2023-05-07T11:34:09;3.38;;;2.05;;
73954;SDS011;62306;52.516;13.290;2023-05-07T11:36:41;3.15;;;1.90;;
73954;SDS011;62306;52.516;13.290;2023-05-07T11:39:25;4.93;;;2.10;;
73954;SDS011;62306;52.516;13.290;2023-05-07T11:41:54;5.45;;;1.92;;
73954;SDS011;62306;52.516;13.290;2023-05-07T11:44:21;3.97;;;1.70;;
73954;SDS011;62306;52.516;13.290;2023-05-07T11:46:48;4.40;;;2.10;;
73954;SDS011;62306;52.516;13.290;2023-05-07T11:49:15;5.35;;;1.80;;
73954;SDS011;62306;52.516;13.290;2023-05-07T11:51:42;3.45;;;2.20;;
73954;SDS011;62306;52.516;13.290;2023-05-07T11:54:11;3.30;;;2.35;;
73954;SDS011;62306;52.516;13.290;2023-05-07T11:56:43;3.53;;;2.22;;
73954;SDS011;62306;52.516;13.290;2023-05-07T11:59:13;6.75;;;2.20;;
73954;SDS011;62306;52.516;13.290;2023-05-07T12:01:45;5.30;;;2.47;;
73954;SDS011;62306;52.516;13.290;2023-05-07T12:04:13;2.05;;;1.90;;
73954;SDS011;62306;52.516;13.290;2023-05-07T12:06:40;3.13;;;1.67;;
73954;SDS011;62306;52.516;13.290;2023-05-07T12:09:06;2.97;;;2.22;;
73954;SDS011;62306;52.516;13.290;2023-05-07T12:11:36;3.03;;;2.13;;
73954;SDS011;62306;52.516;13.290;2023-05-07T12:14:04;2.70;;;1.80;;
73954;SDS011;62306;52.516;13.290;2023-05-07T12:16:33;2.85;;;1.88;;
73954;SDS011;62306;52.516;13.290;2023-05-07T12:19:00;2.72;;;1.90;;
73954;SDS011;62306;52.516;13.290;2023-05-07T12:21:27;2.60;;;1.80;;
73954;SDS011;62306;52.516;13.290;2023-05-07T12:23:55;2.10;;;1.85;;
73954;SDS011;62306;52.516;13.290;2023-05-07T12:26:22;2.53;;;2.10;;
73954;SDS011;62306;52.516;13.290;2023-05-07T12:28:50;1.90;;;1.50;;
73954;SDS011;62306;52.516;13.290;2023-05-07T12:31:17;2.20;;;1.67;;
73954;SDS011;62306;52.516;13.290;2023-05-07T12:33:45;2.38;;;2.10;;
73954;SDS011;62306;52.516;13.290;2023-05-07T12:36:12;4.70;;;1.63;;
73954;SDS011;62306;52.516;13.290;2023-05-07T12:38:39;2.47;;;1.63;;
73954;SDS011;62306;52.516;13.290;2023-05-07T12:41:07;4.30;;;1.65;;
73954;SDS011;62306;52.516;13.290;2023-05-07T12:43:35;2.65;;;1.95;;
73954;SDS011;62306;52.516;13.290;2023-05-07T12:46:03;3.72;;;1.90;;
73954;SDS011;62306;52.516;13.290;2023-05-07T12:48:31;3.05;;;1.50;;
73954;SDS011;62306;52.516;13.290;2023-05-07T12:51:00;4.85;;;2.20;;
73954;SDS011;62306;52.516;13.290;2023-05-07T12:53:28;3.97;;;1.90;;
73954;SDS011;62306;52.516;13.290;2023-05-07T12:55:56;2.38;;;1.80;;
73954;SDS011;62306;52.516;13.290;2023-05-07T12:58:25;2.50;;;1.70;;
73954;SDS011;62306;52.516;13.290;2023-05-07T13:00:53;2.08;;;1.70;;
73954;SDS011;62306;52.516;13.290;2023-05-07T13:03:24;2.53;;;1.58;;
73954;SDS011;62306;52.516;13.290;2023-05-07T13:05:52;3.28;;;2.13;;
73954;SDS011;62306;52.516;13.290;2023-05-07T13:08:26;3.63;;;1.67;;
73954;SDS011;62306;52.516;13.290;2023-05-07T13:10:54;4.88;;;1.92;;
73954;SDS011;62306;52.516;13.290;2023-05-07T13:13:21;4.65;;;1.67;;
73954;SDS011;62306;52.516;13.290;2023-05-07T13:15:48;1.85;;;1.45;;
73954;SDS011;62306;52.516;13.290;2023-05-07T13:18:15;2.50;;;1.70;;
73954;SDS011;62306;52.516;13.290;2023-05-07T13:20:42;3.92;;;1.48;;
73954;SDS011;62306;52.516;13.290;2023-05-07T13:23:09;2.78;;;1.70;;
73954;SDS011;62306;52.516;13.290;2023-05-07T13:25:37;3.85;;;1.90;;
73954;SDS011;62306;52.516;13.290;2023-05-07T13:28:04;6.65;;;1.65;;
73954;SDS011;62306;52.516;13.290;2023-05-07T13:30:31;1.80;;;1.48;;
73954;SDS011;62306;52.516;13.290;2023-05-07T13:32:58;5.30;;;2.03;;
73954;SDS011;62306;52.516;13.290;2023-05-07T13:35:25;2.70;;;1.70;;
73954;SDS011;62306;52.516;13.290;2023-05-07T13:37:52;2.75;;;1.60;;
73954;SDS011;62306;52.516;13.290;2023-05-07T13:40:19;2.20;;;1.30;;
73954;SDS011;62306;52.516;13.290;2023-05-07T13:42:48;3.05;;;1.70;;
73954;SDS011;62306;52.516;13.290;2023-05-07T13:45:15;2.85;;;1.98;;
73954;SDS011;62306;52.516;13.290;2023-05-07T13:47:42;2.03;;;1.63;;
73954;SDS011;62306;52.516;13.290;2023-05-07T13:50:09;3.70;;;1.33;;
73954;SDS011;62306;52.516;13.290;2023-05-07T13:52:38;3.83;;;1.92;;
73954;SDS011;62306;52.516;13.290;2023-05-07T13:55:08;1.45;;;1.23;;
73954;SDS011;62306;52.516;13.290;2023-05-07T13:57:36;4.50;;;1.65;;
73954;SDS011;62306;52.516;13.290;2023-05-07T14:00:05;1.88;;;1.52;;
73954;SDS011;62306;52.516;13.290;2023-05-07T14:02:32;6.00;;;1.98;;
73954;SDS011;62306;52.516;13.290;2023-05-07T15:04:47;3.20;;;1.85;;
73954;SDS011;62306;52.516;13.290;2023-05-07T15:07:14;5.65;;;2.55;;
73954;SDS011;62306;52.516;13.290;2023-05-07T15:09:42;3.13;;;2.55;;
73954;SDS011;62306;52.516;13.290;2023-05-07T15:12:10;2.30;;;1.63;;
73954;SDS011;62306;52.516;13.290;2023-05-07T15:14:37;2.05;;;1.58;;
73954;SDS011;62306;52.516;13.290;2023-05-07T15:17:04;2.45;;;1.30;;
73954;SDS011;62306;52.516;13.290;2023-05-07T15:19:31;4.43;;;1.40;;
73954;SDS011;62306;52.516;13.290;2023-05-07T15:21:59;4.13;;;1.60;;
73954;SDS011;62306;52.516;13.290;2023-05-07T15:24:27;1.63;;;1.48;;
73954;SDS011;62306;52.516;13.290;2023-05-07T15:26:54;3.00;;;1.35;;
73954;SDS011;62306;52.516;13.290;2023-05-07T15:29:21;2.67;;;1.25;;
73954;SDS011;62306;52.516;13.290;2023-05-07T15:31:48;2.72;;;2.00;;
73954;SDS011;62306;52.516;13.290;2023-05-07T15:34:15;2.20;;;1.60;;
73954;SDS011;62306;52.516;13.290;2023-05-07T15:36:42;4.57;;;1.50;;
73954;SDS011;62306;52.516;13.290;2023-05-07T15:39:10;1.58;;;1.45;;
73954;SDS011;62306;52.516;13.290;2023-05-07T15:41:37;3.10;;;1.85;;
73954;SDS011;62306;52.516;13.290;2023-05-07T15:44:04;4.63;;;1.73;;
73954;SDS011;62306;52.516;13.290;2023-05-07T15:46:31;2.53;;;1.60;;
73954;SDS011;62306;52.516;13.290;2023-05-07T15:48:59;4.97;;;1.90;;
73954;SDS011;62306;52.516;13.290;2023-05-07T15:51:29;2.10;;;1.50;;
73954;SDS011;62306;52.516;13.290;2023-05-07T15:53:56;3.70;;;1.85;;
73954;SDS011;62306;52.516;13.290;2023-05-07T15:56:24;2.17;;;1.75;;
73954;SDS011;62306;52.516;13.290;2023-05-07T15:58:51;3.42;;;2.17;;
73954;SDS011;62306;52.516;13.290;2023-05-07T16:01:18;4.68;;;1.40;;
73954;SDS011;62306;52.516;13.290;2023-05-07T16:03:45;3.45;;;1.13;;
73954;SDS011;62306;52.516;13.290;2023-05-07T16:06:12;4.00;;;1.80;;
73954;SDS011;62306;52.516;13.290;2023-05-07T16:08:39;2.83;;;1.55;;
73954;SDS011;62306;52.516;13.290;2023-05-07T16:11:08;2.08;;;1.80;;
73954;SDS011;62306;52.516;13.290;2023-05-07T16:13:36;2.10;;;1.55;;
73954;SDS011;62306;52.516;13.290;2023-05-07T16:16:03;2.15;;;1.60;;
73954;SDS011;62306;52.516;13.290;2023-05-07T16:18:31;1.95;;;1.67;;
73954;SDS011;62306;52.516;13.290;2023-05-07T16:20:59;2.97;;;1.58;;
73954;SDS011;62306;52.516;13.290;2023-05-07T16:23:26;1.67;;;1.50;;
73954;SDS011;62306;52.516;13.290;2023-05-07T16:25:53;5.35;;;1.90;;
73954;SDS011;62306;52.516;13.290;2023-05-07T16:28:20;2.85;;;1.98;;
73954;SDS011;62306;52.516;13.290;2023-05-07T16:30:48;2.40;;;1.65;;
73954;SDS011;62306;52.516;13.290;2023-05-07T16:33:15;2.50;;;1.98;;
73954;SDS011;62306;52.516;13.290;2023-05-07T16:35:42;3.67;;;2.20;;
73954;SDS011;62306;52.516;13.290;2023-05-07T16:38:11;12.05;;;6.95;;
73954;SDS011;62306;52.516;13.290;2023-05-07T16:40:39;6.45;;;2.58;;
73954;SDS011;62306;52.516;13.290;2023-05-07T16:43:06;5.25;;;2.70;;
73954;SDS011;62306;52.516;13.290;2023-05-07T16:45:33;4.30;;;2.70;;
73954;SDS011;62306;52.516;13.290;2023-05-07T16:48:01;4.15;;;2.20;;
73954;SDS011;62306;52.516;13.290;2023-05-07T16:50:28;4.07;;;2.20;;
73954;SDS011;62306;52.516;13.290;2023-05-07T16:52:55;4.18;;;2.20;;
73954;SDS011;62306;52.516;13.290;2023-05-07T16:55:22;3.33;;;2.20;;
73954;SDS011;62306;52.516;13.290;2023-05-07T16:57:49;2.40;;;2.20;;
73954;SDS011;62306;52.516;13.290;2023-05-07T17:00:16;2.35;;;1.70;;
73954;SDS011;62306;52.516;13.290;2023-05-07T17:02:44;2.97;;;2.40;;
73954;SDS011;62306;52.516;13.290;2023-05-07T17:05:12;3.25;;;1.95;;
73954;SDS011;62306;52.516;13.290;2023-05-07T17:07:39;4.20;;;2.03;;
73954;SDS011;62306;52.516;13.290;2023-05-07T17:10:06;2.47;;;1.80;;
73954;SDS011;62306;52.516;13.290;2023-05-07T17:12:33;2.80;;;1.95;;
73954;SDS011;62306;52.516;13.290;2023-05-07T17:15:01;2.67;;;2.30;;
73954;SDS011;62306;52.516;13.290;2023-05-07T17:17:28;4.22;;;1.75;;
73954;SDS011;62306;52.516;13.290;2023-05-07T17:19:56;4.38;;;2.25;;
73954;SDS011;62306;52.516;13.290;2023-05-07T17:22:25;2.78;;;1.60;;
73954;SDS011;62306;52.516;13.290;2023-05-07T17:24:52;4.45;;;2.17;;
73954;SDS011;62306;52.516;13.290;2023-05-07T17:27:20;4.78;;;1.92;;
73954;SDS011;62306;52.516;13.290;2023-05-07T17:29:47;5.50;;;1.88;;
73954;SDS011;62306;52.516;13.290;2023-05-07T17:32:13;3.72;;;1.45;;
73954;SDS011;62306;52.516;13.290;2023-05-07T17:34:40;3.63;;;2.22;;
73954;SDS011;62306;52.516;13.290;2023-05-07T17:37:07;4.78;;;2.28;;
73954;SDS011;62306;52.516;13.290;2023-05-07T17:39:35;3.72;;;2.03;;
73954;SDS011;62306;52.516;13.290;2023-05-07T17:42:02;2.13;;;1.92;;
73954;SDS011;62306;52.516;13.290;2023-05-07T17:44:29;4.38;;;1.90;;
73954;SDS011;62306;52.516;13.290;2023-05-07T17:46:57;3.63;;;2.25;;
73954;SDS011;62306;52.516;13.290;2023-05-07T17:49:24;2.67;;;1.63;;
73954;SDS011;62306;52.516;13.290;2023-05-07T17:51:51;2.70;;;1.60;;
73954;SDS011;62306;52.516;13.290;2023-05-07T17:54:18;2.92;;;2.00;;
73954;SDS011;62306;52.516;13.290;2023-05-07T17:56:47;3.42;;;2.28;;
73954;SDS011;62306;52.516;13.290;2023-05-07T17:59:14;3.97;;;2.00;;
73954;SDS011;62306;52.516;13.290;2023-05-07T18:01:41;2.08;;;1.70;;
73954;SDS011;62306;52.516;13.290;2023-05-07T18:04:08;2.50;;;2.10;;
73954;SDS011;62306;52.516;13.290;2023-05-07T18:06:35;4.93;;;3.05;;